sensor_id;sensor_type;location;lat;lon;timestamp;pressure;altitude;pressure_sealevel;temperature;humidity
54465;BME280;40374;49.480;20.016;2022-12-08T04:44:19;94468.53;;;-0.79;100.00
54465;BME280;40374;49.480;20.016;2022-12-08T04:46:47;94450.28;;;-0.99;100.00
54465;BME280;40374;49.480;20.016;2022-12-08T04:49:14;94455.91;;;-1.14;100.00
54465;BME280;40374;49.480;20.016;2022-12-08T04:51:41;94460.47;;;-1.21;100.00
54465;BME280;40374;49.480;20.016;2022-12-08T04:54:08;94457.22;;;-1.42;100.00
54465;BME280;40374;49.480;20.016;2022-12-08T04:56:36;94468.09;;;-1.57;100.00
54465;BME280;40374;49.480;20.016;2022-12-08T04:59:04;94465.56;;;-1.70;100.00
54465;BME280;40374;49.480;20.016;2022-12-08T05:01:33;94462.56;;;-1.74;100.00
54465;BME280;40374;49.480;20.016;2022-12-08T05:04:00;94461.00;;;-1.81;100.00
54465;BME280;40374;49.480;20.016;2022-12-08T05:06:28;94484.13;;;-1.84;100.00
54465;BME280;40374;49.480;20.016;2022-12-08T05:08:55;94471.81;;;-1.90;100.00
54465;BME280;40374;49.480;20.016;2022-12-08T05:11:23;94464.22;;;-1.79;100.00
54465;BME280;40374;49.480;20.016;2022-12-08T05:13:50;94476.69;;;-1.93;100.00
54465;BME280;40374;49.480;20.016;2022-12-08T05:16:17;94480.94;;;-1.92;100.00
54465;BME280;40374;49.480;20.016;2022-12-08T05:18:45;94459.84;;;-2.17;100.00
54465;BME280;40374;49.480;20.016;2022-12-08T05:21:12;94489.75;;;-2.05;100.00
54465;BME280;40374;49.480;20.016;2022-12-08T05:23:41;94477.38;;;-2.05;100.00
54465;BME280;40374;49.480;20.016;2022-12-08T05:26:08;94471.13;;;-2.03;100.00
54465;BME280;40374;49.480;20.016;2022-12-08T05:28:36;94460.81;;;-2.12;100.00
54465;BME280;40374;49.480;20.016;2022-12-08T05:31:10;94464.69;;;-1.89;100.00
54465;BME280;40374;49.480;20.016;2022-12-08T05:33:38;94479.63;;;-1.76;100.00
54465;BME280;40374;49.480;20.016;2022-12-08T05:36:07;94481.09;;;-1.62;100.00
54465;BME280;40374;49.480;20.016;2022-12-08T05:38:35;94474.13;;;-1.75;100.00
54465;BME280;40374;49.480;20.016;2022-12-08T05:41:02;94473.19;;;-1.87;100.00
54465;BME280;40374;49.480;20.016;2022-12-08T05:43:29;94484.50;;;-1.80;100.00
54465;BME280;40374;49.480;20.016;2022-12-08T05:45:57;94488.22;;;-1.63;100.00
54465;BME280;40374;49.480;20.016;2022-12-08T05:48:24;94478.84;;;-1.58;100.00
54465;BME280;40374;49.480;20.016;2022-12-08T05:50:52;94486.50;;;-1.50;100.00
54465;BME280;40374;49.480;20.016;2022-12-08T05:53:20;94476.00;;;-1.57;100.00
54465;BME280;40374;49.480;20.016;2022-12-08T05:55:47;94483.13;;;-1.57;100.00
54465;BME280;40374;49.480;20.016;2022-12-08T05:58:17;94488.94;;;-1.30;100.00
54465;BME280;40374;49.480;20.016;2022-12-08T06:00:45;94492.41;;;-1.30;100.00
54465;BME280;40374;49.480;20.016;2022-12-08T06:03:14;94482.19;;;-1.45;100.00
54465;BME280;40374;49.480;20.016;2022-12-08T06:05:44;94486.97;;;-1.35;100.00
54465;BME280;40374;49.480;20.016;2022-12-08T06:08:12;94487.41;;;-1.38;100.00
54465;BME280;40374;49.480;20.016;2022-12-08T06:10:41;94484.06;;;-1.52;100.00
54465;BME280;40374;49.480;20.016;2022-12-08T06:13:09;94486.50;;;-1.50;100.00
54465;BME280;40374;49.480;20.016;2022-12-08T06:15:38;94486.03;;;-1.66;100.00
54465;BME280;40374;49.480;20.016;2022-12-08T06:18:06;94495.00;;;-1.73;100.00
54465;BME280;40374;49.480;20.016;2022-12-08T06:20:33;94485.91;;;-1.77;100.00
54465;BME280;40374;49.480;20.016;2022-12-08T06:23:01;94487.88;;;-1.98;100.00
54465;BME280;40374;49.480;20.016;2022-12-08T06:25:29;94491.16;;;-2.02;100.00
54465;BME280;40374;49.480;20.016;2022-12-08T06:27:57;94499.06;;;-2.02;100.00
54465;BME280;40374;49.480;20.016;2022-12-08T06:30:24;94501.09;;;-2.05;100.00
54465;BME280;40374;49.480;20.016;2022-12-08T06:32:53;94500.34;;;-2.12;100.00
54465;BME280;40374;49.480;20.016;2022-12-08T06:35:20;94495.78;;;-2.30;100.00
54465;BME280;40374;49.480;20.016;2022-12-08T06:37:48;94509.47;;;-2.14;100.00
54465;BME280;40374;49.480;20.016;2022-12-08T06:40:17;94502.78;;;-2.17;100.00
54465;BME280;40374;49.480;20.016;2022-12-08T06:42:45;94500.84;;;-2.28;100.00
54465;BME280;40374;49.480;20.016;2022-12-08T06:45:15;94508.91;;;-2.23;100.00
54465;BME280;40374;49.480;20.016;2022-12-08T06:47:43;94517.25;;;-2.26;100.00
54465;BME280;40374;49.480;20.016;2022-12-08T06:50:11;94501.44;;;-2.26;100.00
54465;BME280;40374;49.480;20.016;2022-12-08T06:52:40;94513.94;;;-2.15;100.00
54465;BME280;40374;49.480;20.016;2022-12-08T06:55:27;94524.00;;;-2.05;100.00
54465;BME280;40374;49.480;20.016;2022-12-08T06:58:16;94518.91;;;-2.00;100.00
54465;BME280;40374;49.480;20.016;2022-12-08T07:00:44;94510.25;;;-2.07;100.00
54465;BME280;40374;49.480;20.016;2022-12-08T07:03:12;94522.47;;;-1.88;100.00
54465;BME280;40374;49.480;20.016;2022-12-08T07:05:40;94529.19;;;-1.92;100.00
54465;BME280;40374;49.480;20.016;2022-12-08T07:08:08;94533.50;;;-1.72;100.00
54465;BME280;40374;49.480;20.016;2022-12-08T07:10:37;94535.75;;;-1.44;100.00
54465;BME280;40374;49.480;20.016;2022-12-08T07:13:04;94532.41;;;-1.33;100.00
54465;BME280;40374;49.480;20.016;2022-12-08T07:15:32;94523.13;;;-1.17;100.00
54465;BME280;40374;49.480;20.016;2022-12-08T07:18:00;94522.84;;;-1.09;100.00
54465;BME280;40374;49.480;20.016;2022-12-08T07:20:27;94529.91;;;-1.03;100.00
54465;BME280;40374;49.480;20.016;2022-12-08T07:22:55;94528.00;;;-0.95;100.00
54465;BME280;40374;49.480;20.016;2022-12-08T07:25:23;94515.59;;;-0.95;100.00
54465;BME280;40374;49.480;20.016;2022-12-08T07:27:51;94522.63;;;-0.89;100.00
54465;BME280;40374;49.480;20.016;2022-12-08T07:30:19;94538.06;;;-0.86;100.00
54465;BME280;40374;49.480;20.016;2022-12-08T07:32:46;94528.78;;;-0.95;100.00
54465;BME280;40374;49.480;20.016;2022-12-08T07:35:15;94531.81;;;-0.91;100.00
54465;BME280;40374;49.480;20.016;2022-12-08T07:37:42;94538.22;;;-0.62;100.00
54465;BME280;40374;49.480;20.016;2022-12-08T07:40:10;94542.31;;;-0.66;100.00
54465;BME280;40374;49.480;20.016;2022-12-08T07:42:38;94536.06;;;-0.53;100.00
54465;BME280;40374;49.480;20.016;2022-12-08T07:45:06;94534.53;;;-0.43;100.00
54465;BME280;40374;49.480;20.016;2022-12-08T07:47:33;94537.97;;;-0.42;100.00
54465;BME280;40374;49.480;20.016;2022-12-08T07:50:01;94540.25;;;-0.27;100.00
54465;BME280;40374;49.480;20.016;2022-12-08T07:52:28;94522.47;;;-0.20;100.00
54465;BME280;40374;49.480;20.016;2022-12-08T07:54:56;94516.78;;;-0.05;100.00
54465;BME280;40374;49.480;20.016;2022-12-08T07:57:23;94536.13;;;0.07;100.00
54465;BME280;40374;49.480;20.016;2022-12-08T07:59:51;94528.41;;;0.06;100.00
54465;BME280;40374;49.480;20.016;2022-12-08T08:02:18;94533.16;;;0.15;100.00
54465;BME280;40374;49.480;20.016;2022-12-08T08:04:52;94524.28;;;0.10;100.00
54465;BME280;40374;49.480;20.016;2022-12-08T08:07:23;94521.38;;;0.30;100.00
54465;BME280;40374;49.480;20.016;2022-12-08T08:09:50;94528.25;;;0.31;100.00
54465;BME280;40374;49.480;20.016;2022-12-08T08:12:18;94520.91;;;0.33;100.00
54465;BME280;40374;49.480;20.016;2022-12-08T08:14:59;94520.78;;;0.39;100.00
54465;BME280;40374;49.480;20.016;2022-12-08T08:17:27;94525.41;;;0.44;100.00
54465;BME280;40374;49.480;20.016;2022-12-08T08:19:56;94518.88;;;0.58;100.00
54465;BME280;40374;49.480;20.016;2022-12-08T08:22:26;94508.22;;;0.65;100.00
54465;BME280;40374;49.480;20.016;2022-12-08T08:24:54;94501.28;;;0.64;100.00
54465;BME280;40374;49.480;20.016;2022-12-08T08:27:21;94523.16;;;0.83;100.00
54465;BME280;40374;49.480;20.016;2022-12-08T08:29:49;94521.44;;;0.89;100.00
54465;BME280;40374;49.480;20.016;2022-12-08T08:32:17;94512.44;;;0.90;100.00
54465;BME280;40374;49.480;20.016;2022-12-08T08:34:44;94508.88;;;0.96;100.00
54465;BME280;40374;49.480;20.016;2022-12-08T08:37:12;94509.56;;;0.79;100.00
54465;BME280;40374;49.480;20.016;2022-12-08T08:39:40;94519.69;;;0.94;100.00
54465;BME280;40374;49.480;20.016;2022-12-08T08:42:09;94516.72;;;1.14;100.00
54465;BME280;40374;49.480;20.016;2022-12-08T08:44:36;94518.78;;;1.24;100.00
54465;BME280;40374;49.480;20.016;2022-12-08T08:47:05;94524.66;;;1.26;100.00
54465;BME280;40374;49.480;20.016;2022-12-08T08:49:33;94515.00;;;1.20;100.00
54465;BME280;40374;49.480;20.016;2022-12-08T08:52:00;94514.69;;;1.57;100.00
54465;BME280;40374;49.480;20.016;2022-12-08T08:54:28;94508.06;;;2.29;100.00
54465;BME280;40374;49.480;20.016;2022-12-08T08:56:56;94506.63;;;2.38;100.00
54465;BME280;40374;49.480;20.016;2022-12-08T08:59:25;94507.44;;;2.38;100.00
54465;BME280;40374;49.480;20.016;2022-12-08T09:01:55;94499.25;;;2.40;100.00
54465;BME280;40374;49.480;20.016;2022-12-08T09:04:23;94487.34;;;2.42;100.00
54465;BME280;40374;49.480;20.016;2022-12-08T09:06:51;94496.31;;;2.41;100.00
54465;BME280;40374;49.480;20.016;2022-12-08T09:09:19;94498.16;;;2.24;100.00
54465;BME280;40374;49.480;20.016;2022-12-08T09:11:46;94487.25;;;1.92;100.00
54465;BME280;40374;49.480;20.016;2022-12-08T09:14:14;94494.16;;;1.93;100.00
54465;BME280;40374;49.480;20.016;2022-12-08T09:16:42;94492.72;;;1.85;100.00
54465;BME280;40374;49.480;20.016;2022-12-08T09:19:09;94484.25;;;1.88;100.00
54465;BME280;40374;49.480;20.016;2022-12-08T09:21:38;94484.19;;;1.83;100.00
54465;BME280;40374;49.480;20.016;2022-12-08T09:24:06;94484.69;;;1.97;100.00
54465;BME280;40374;49.480;20.016;2022-12-08T09:26:36;94461.38;;;1.99;100.00
54465;BME280;40374;49.480;20.016;2022-12-08T09:29:04;94477.88;;;2.18;100.00
54465;BME280;40374;49.480;20.016;2022-12-08T09:31:31;94481.81;;;1.98;100.00
54465;BME280;40374;49.480;20.016;2022-12-08T09:33:59;94462.31;;;2.21;100.00
54465;BME280;40374;49.480;20.016;2022-12-08T09:36:27;94456.69;;;2.52;100.00
54465;BME280;40374;49.480;20.016;2022-12-08T09:38:55;94452.47;;;2.90;100.00
54465;BME280;40374;49.480;20.016;2022-12-08T09:41:32;94454.06;;;4.01;100.00
54465;BME280;40374;49.480;20.016;2022-12-08T09:46:57;94442.47;;;5.24;100.00
54465;BME280;40374;49.480;20.016;2022-12-08T09:49:38;94440.25;;;5.06;100.00
54465;BME280;40374;49.480;20.016;2022-12-08T09:52:20;94430.19;;;4.71;100.00
54465;BME280;40374;49.480;20.016;2022-12-08T09:54:49;94441.50;;;4.23;100.00
54465;BME280;40374;49.480;20.016;2022-12-08T09:57:19;94443.31;;;4.18;100.00
54465;BME280;40374;49.480;20.016;2022-12-08T09:59:54;94442.81;;;4.21;100.00
54465;BME280;40374;49.480;20.016;2022-12-08T10:02:26;94433.34;;;4.03;100.00
54465;BME280;40374;49.480;20.016;2022-12-08T10:04:56;94427.72;;;3.99;100.00
54465;BME280;40374;49.480;20.016;2022-12-08T10:07:32;94430.66;;;3.76;100.00
54465;BME280;40374;49.480;20.016;2022-12-08T10:15:46;94432.13;;;3.39;100.00
54465;BME280;40374;49.480;20.016;2022-12-08T10:18:18;94412.22;;;3.20;100.00
54465;BME280;40374;49.480;20.016;2022-12-08T10:20:49;94422.00;;;3.36;100.00
54465;BME280;40374;49.480;20.016;2022-12-08T10:25:48;94410.31;;;3.59;100.00
54465;BME280;40374;49.480;20.016;2022-12-08T10:28:17;94419.44;;;3.69;100.00
54465;BME280;40374;49.480;20.016;2022-12-08T10:30:45;94417.13;;;4.04;100.00
54465;BME280;40374;49.480;20.016;2022-12-08T10:33:15;94404.63;;;4.37;100.00
54465;BME280;40374;49.480;20.016;2022-12-08T10:35:57;94411.09;;;4.46;100.00
54465;BME280;40374;49.480;20.016;2022-12-08T10:38:36;94402.59;;;4.17;100.00
54465;BME280;40374;49.480;20.016;2022-12-08T10:43:48;94387.66;;;4.43;100.00
54465;BME280;40374;49.480;20.016;2022-12-08T10:46:23;94393.44;;;4.35;100.00
54465;BME280;40374;49.480;20.016;2022-12-08T10:48:56;94392.53;;;4.57;100.00
54465;BME280;40374;49.480;20.016;2022-12-08T10:51:39;94392.06;;;4.65;100.00
54465;BME280;40374;49.480;20.016;2022-12-08T10:54:26;94392.06;;;4.65;100.00
54465;BME280;40374;49.480;20.016;2022-12-08T10:56:55;62409.59;;;-145.97;100.00
54465;BME280;40374;49.480;20.016;2022-12-08T10:59:24;62409.59;;;-145.97;100.00
54465;BME280;40374;49.480;20.016;2022-12-08T11:01:54;62409.59;;;-145.97;100.00
54465;BME280;40374;49.480;20.016;2022-12-08T11:04:33;62409.59;;;-145.97;100.00
54465;BME280;40374;49.480;20.016;2022-12-08T11:07:07;62409.59;;;-145.97;100.00
54465;BME280;40374;49.480;20.016;2022-12-08T11:09:41;62409.59;;;-145.97;100.00
54465;BME280;40374;49.480;20.016;2022-12-08T11:12:17;62409.59;;;-145.97;100.00
54465;BME280;40374;49.480;20.016;2022-12-08T11:14:53;62409.59;;;-145.97;100.00
54465;BME280;40374;49.480;20.016;2022-12-08T11:17:25;62409.59;;;-145.97;100.00
54465;BME280;40374;49.480;20.016;2022-12-08T11:20:01;62409.59;;;-145.97;100.00
54465;BME280;40374;49.480;20.016;2022-12-08T11:22:37;62409.59;;;-145.97;100.00
54465;BME280;40374;49.480;20.016;2022-12-08T11:25:11;62409.59;;;-145.97;100.00
54465;BME280;40374;49.480;20.016;2022-12-08T11:27:41;62409.59;;;-145.97;100.00
54465;BME280;40374;49.480;20.016;2022-12-08T11:30:15;62409.59;;;-145.97;100.00
54465;BME280;40374;49.480;20.016;2022-12-08T11:32:45;62409.59;;;-145.97;100.00
54465;BME280;40374;49.480;20.016;2022-12-08T11:35:35;62409.59;;;-145.97;100.00
54465;BME280;40374;49.480;20.016;2022-12-08T11:38:31;62409.59;;;-145.97;100.00
54465;BME280;40374;49.480;20.016;2022-12-08T11:41:05;62409.59;;;-145.97;100.00
54465;BME280;40374;49.480;20.016;2022-12-08T11:44:34;62409.59;;;-145.97;100.00
54465;BME280;40374;49.480;20.016;2022-12-08T11:47:30;62409.59;;;-145.97;100.00
54465;BME280;40374;49.480;20.016;2022-12-08T11:50:20;62409.59;;;-145.97;100.00
54465;BME280;40374;49.480;20.016;2022-12-08T11:52:50;62409.59;;;-145.97;100.00
54465;BME280;40374;49.480;20.016;2022-12-08T11:55:37;62409.59;;;-145.97;100.00
54465;BME280;40374;49.480;20.016;2022-12-08T11:58:43;62409.59;;;-145.97;100.00
54465;BME280;40374;49.480;20.016;2022-12-08T12:01:21;62409.59;;;-145.97;100.00
54465;BME280;40374;49.480;20.016;2022-12-08T12:07:21;62409.59;;;-145.97;100.00
54465;BME280;40374;49.480;20.016;2022-12-08T12:19:15;62409.59;;;-145.97;100.00
54465;BME280;40374;49.480;20.016;2022-12-08T12:22:09;62409.59;;;-145.97;100.00
54465;BME280;40374;49.480;20.016;2022-12-08T12:24:39;62409.59;;;-145.97;100.00
54465;BME280;40374;49.480;20.016;2022-12-08T12:29:47;62409.59;;;-145.97;100.00
54465;BME280;40374;49.480;20.016;2022-12-08T12:32:44;62409.59;;;-145.97;100.00
54465;BME280;40374;49.480;20.016;2022-12-08T12:35:35;62409.59;;;-145.97;100.00
54465;BME280;40374;49.480;20.016;2022-12-08T12:38:14;62409.59;;;-145.97;100.00
54465;BME280;40374;49.480;20.016;2022-12-08T12:41:04;62409.59;;;-145.97;100.00
54465;BME280;40374;49.480;20.016;2022-12-08T12:43:36;62409.59;;;-145.97;100.00
54465;BME280;40374;49.480;20.016;2022-12-08T12:48:50;62409.59;;;-145.97;100.00
54465;BME280;40374;49.480;20.016;2022-12-08T12:54:25;62409.59;;;-145.97;100.00
54465;BME280;40374;49.480;20.016;2022-12-08T12:57:15;62409.59;;;-145.97;100.00
54465;BME280;40374;49.480;20.016;2022-12-08T13:02:48;62409.59;;;-145.97;100.00
54465;BME280;40374;49.480;20.016;2022-12-08T13:05:28;62409.59;;;-145.97;100.00
54465;BME280;40374;49.480;20.016;2022-12-08T13:07:59;62409.59;;;-145.97;100.00
54465;BME280;40374;49.480;20.016;2022-12-08T13:10:37;62409.59;;;-145.97;100.00
54465;BME280;40374;49.480;20.016;2022-12-08T13:15:46;62409.59;;;-145.97;100.00
54465;BME280;40374;49.480;20.016;2022-12-08T13:18:18;62409.59;;;-145.97;100.00
54465;BME280;40374;49.480;20.016;2022-12-08T13:21:23;62409.59;;;-145.97;100.00
54465;BME280;40374;49.480;20.016;2022-12-08T13:26:25;62409.59;;;-145.97;100.00
54465;BME280;40374;49.480;20.016;2022-12-08T13:29:04;62409.59;;;-145.97;100.00
54465;BME280;40374;49.480;20.016;2022-12-08T13:37:19;62409.59;;;-145.97;100.00
54465;BME280;40374;49.480;20.016;2022-12-08T13:40:08;62409.59;;;-145.97;100.00
54465;BME280;40374;49.480;20.016;2022-12-08T13:45:21;62409.59;;;-145.97;100.00
54465;BME280;40374;49.480;20.016;2022-12-08T13:48:28;62409.59;;;-145.97;100.00
54465;BME280;40374;49.480;20.016;2022-12-08T13:51:19;62409.59;;;-145.97;100.00
54465;BME280;40374;49.480;20.016;2022-12-08T13:57:25;62409.59;;;-145.97;100.00
54465;BME280;40374;49.480;20.016;2022-12-08T14:00:03;62409.59;;;-145.97;100.00
54465;BME280;40374;49.480;20.016;2022-12-08T14:02:41;62409.59;;;-145.97;100.00
54465;BME280;40374;49.480;20.016;2022-12-08T14:05:16;62409.59;;;-145.97;100.00
54465;BME280;40374;49.480;20.016;2022-12-08T14:07:55;62409.59;;;-145.97;100.00
54465;BME280;40374;49.480;20.016;2022-12-08T14:10:28;62409.59;;;-145.97;100.00
54465;BME280;40374;49.480;20.016;2022-12-08T14:13:04;62409.59;;;-145.97;100.00
54465;BME280;40374;49.480;20.016;2022-12-08T14:15:33;62409.59;;;-145.97;100.00
54465;BME280;40374;49.480;20.016;2022-12-08T14:18:21;62409.59;;;-145.97;100.00
54465;BME280;40374;49.480;20.016;2022-12-08T14:21:05;62409.59;;;-145.97;100.00
54465;BME280;40374;49.480;20.016;2022-12-08T14:23:50;62409.59;;;-145.97;100.00
54465;BME280;40374;49.480;20.016;2022-12-08T14:26:17;62409.59;;;-145.97;100.00
54465;BME280;40374;49.480;20.016;2022-12-08T14:28:45;62409.59;;;-145.97;100.00
54465;BME280;40374;49.480;20.016;2022-12-08T14:31:12;62409.59;;;-145.97;100.00
54465;BME280;40374;49.480;20.016;2022-12-08T14:33:41;62409.59;;;-145.97;100.00
54465;BME280;40374;49.480;20.016;2022-12-08T14:36:09;62409.59;;;-145.97;100.00
54465;BME280;40374;49.480;20.016;2022-12-08T14:38:41;62409.59;;;-145.97;100.00
54465;BME280;40374;49.480;20.016;2022-12-08T14:41:10;62409.59;;;-145.97;100.00
54465;BME280;40374;49.480;20.016;2022-12-08T14:43:38;62409.59;;;-145.97;100.00
54465;BME280;40374;49.480;20.016;2022-12-08T14:46:21;62409.59;;;-145.97;100.00
54465;BME280;40374;49.480;20.016;2022-12-08T14:48:49;62409.59;;;-145.97;100.00
54465;BME280;40374;49.480;20.016;2022-12-08T14:54:08;62409.59;;;-145.97;100.00
54465;BME280;40374;49.480;20.016;2022-12-08T14:56:41;62409.59;;;-145.97;100.00
54465;BME280;40374;49.480;20.016;2022-12-08T14:59:33;62409.59;;;-145.97;100.00
54465;BME280;40374;49.480;20.016;2022-12-08T15:04:41;62409.59;;;-145.97;100.00
54465;BME280;40374;49.480;20.016;2022-12-08T15:09:40;62409.59;;;-145.97;100.00
54465;BME280;40374;49.480;20.016;2022-12-08T15:14:56;62409.59;;;-145.97;100.00
54465;BME280;40374;49.480;20.016;2022-12-08T15:23:02;62409.59;;;-145.97;100.00
54465;BME280;40374;49.480;20.016;2022-12-08T15:25:30;62409.59;;;-145.97;100.00
54465;BME280;40374;49.480;20.016;2022-12-08T15:27:57;62409.59;;;-145.97;100.00
54465;BME280;40374;49.480;20.016;2022-12-08T15:30:25;62409.59;;;-145.97;100.00
54465;BME280;40374;49.480;20.016;2022-12-08T15:32:53;62409.59;;;-145.97;100.00
54465;BME280;40374;49.480;20.016;2022-12-08T15:35:22;62409.59;;;-145.97;100.00
54465;BME280;40374;49.480;20.016;2022-12-08T15:37:50;62409.59;;;-145.97;100.00
54465;BME280;40374;49.480;20.016;2022-12-08T15:40:19;62409.59;;;-145.97;100.00
54465;BME280;40374;49.480;20.016;2022-12-08T15:42:48;62409.59;;;-145.97;100.00
54465;BME280;40374;49.480;20.016;2022-12-08T15:45:16;62409.59;;;-145.97;100.00
54465;BME280;40374;49.480;20.016;2022-12-08T15:47:44;62409.59;;;-145.97;100.00
54465;BME280;40374;49.480;20.016;2022-12-08T15:50:17;62409.59;;;-145.97;100.00
54465;BME280;40374;49.480;20.016;2022-12-08T15:52:45;62409.59;;;-145.97;100.00
54465;BME280;40374;49.480;20.016;2022-12-08T15:55:14;62409.59;;;-145.97;100.00
54465;BME280;40374;49.480;20.016;2022-12-08T15:57:44;62409.59;;;-145.97;100.00
54465;BME280;40374;49.480;20.016;2022-12-08T16:00:34;62409.59;;;-145.97;100.00
54465;BME280;40374;49.480;20.016;2022-12-08T16:06:15;62409.59;;;-145.97;100.00
54465;BME280;40374;49.480;20.016;2022-12-08T16:09:03;62409.59;;;-145.97;100.00
54465;BME280;40374;49.480;20.016;2022-12-08T16:11:39;62409.59;;;-145.97;100.00
54465;BME280;40374;49.480;20.016;2022-12-08T16:14:36;62409.59;;;-145.97;100.00
54465;BME280;40374;49.480;20.016;2022-12-08T16:17:25;62409.59;;;-145.97;100.00
54465;BME280;40374;49.480;20.016;2022-12-08T16:19:53;62409.59;;;-145.97;100.00
54465;BME280;40374;49.480;20.016;2022-12-08T16:22:27;62409.59;;;-145.97;100.00
54465;BME280;40374;49.480;20.016;2022-12-08T16:25:15;62409.59;;;-145.97;100.00
54465;BME280;40374;49.480;20.016;2022-12-08T16:27:51;62409.59;;;-145.97;100.00
54465;BME280;40374;49.480;20.016;2022-12-08T16:30:38;62409.59;;;-145.97;100.00
54465;BME280;40374;49.480;20.016;2022-12-08T16:33:06;62409.59;;;-145.97;100.00
54465;BME280;40374;49.480;20.016;2022-12-08T16:35:34;62409.59;;;-145.97;100.00
54465;BME280;40374;49.480;20.016;2022-12-08T16:38:01;62409.59;;;-145.97;100.00
54465;BME280;40374;49.480;20.016;2022-12-08T16:40:29;62409.59;;;-145.97;100.00
54465;BME280;40374;49.480;20.016;2022-12-08T16:42:57;62409.59;;;-145.97;100.00
54465;BME280;40374;49.480;20.016;2022-12-08T16:45:29;62409.59;;;-145.97;100.00
54465;BME280;40374;49.480;20.016;2022-12-08T16:47:58;62409.59;;;-145.97;100.00
54465;BME280;40374;49.480;20.016;2022-12-08T16:50:29;62409.59;;;-145.97;100.00
54465;BME280;40374;49.480;20.016;2022-12-08T16:53:02;62409.59;;;-145.97;100.00
54465;BME280;40374;49.480;20.016;2022-12-08T16:55:30;62409.59;;;-145.97;100.00
54465;BME280;40374;49.480;20.016;2022-12-08T16:57:58;62409.59;;;-145.97;100.00
54465;BME280;40374;49.480;20.016;2022-12-08T17:00:27;62409.59;;;-145.97;100.00
54465;BME280;40374;49.480;20.016;2022-12-08T17:02:56;62409.59;;;-145.97;100.00
54465;BME280;40374;49.480;20.016;2022-12-08T17:05:25;62409.59;;;-145.97;100.00
54465;BME280;40374;49.480;20.016;2022-12-08T17:07:53;62409.59;;;-145.97;100.00
54465;BME280;40374;49.480;20.016;2022-12-08T17:10:23;62409.59;;;-145.97;100.00
54465;BME280;40374;49.480;20.016;2022-12-08T17:12:51;62409.59;;;-145.97;100.00
54465;BME280;40374;49.480;20.016;2022-12-08T17:15:21;62409.59;;;-145.97;100.00
54465;BME280;40374;49.480;20.016;2022-12-08T17:17:50;62409.59;;;-145.97;100.00
54465;BME280;40374;49.480;20.016;2022-12-08T17:20:20;62409.59;;;-145.97;100.00
54465;BME280;40374;49.480;20.016;2022-12-08T17:22:48;62409.59;;;-145.97;100.00
54465;BME280;40374;49.480;20.016;2022-12-08T17:25:15;62409.59;;;-145.97;100.00
54465;BME280;40374;49.480;20.016;2022-12-08T17:27:46;62409.59;;;-145.97;100.00
54465;BME280;40374;49.480;20.016;2022-12-08T17:30:13;62409.59;;;-145.97;100.00
54465;BME280;40374;49.480;20.016;2022-12-08T17:32:44;62409.59;;;-145.97;100.00
54465;BME280;40374;49.480;20.016;2022-12-08T17:35:12;62409.59;;;-145.97;100.00
54465;BME280;40374;49.480;20.016;2022-12-08T17:37:42;62409.59;;;-145.97;100.00
54465;BME280;40374;49.480;20.016;2022-12-08T17:40:10;62409.59;;;-145.97;100.00
54465;BME280;40374;49.480;20.016;2022-12-08T17:42:38;62409.59;;;-145.97;100.00
54465;BME280;40374;49.480;20.016;2022-12-08T17:45:06;62409.59;;;-145.97;100.00
54465;BME280;40374;49.480;20.016;2022-12-08T17:47:35;62409.59;;;-145.97;100.00
54465;BME280;40374;49.480;20.016;2022-12-08T17:50:04;62409.59;;;-145.97;100.00
54465;BME280;40374;49.480;20.016;2022-12-08T17:52:33;62409.59;;;-145.97;100.00
54465;BME280;40374;49.480;20.016;2022-12-08T17:55:00;62409.59;;;-145.97;100.00
54465;BME280;40374;49.480;20.016;2022-12-08T17:57:29;62409.59;;;-145.97;100.00
54465;BME280;40374;49.480;20.016;2022-12-08T17:59:56;62409.59;;;-145.97;100.00
54465;BME280;40374;49.480;20.016;2022-12-08T18:02:25;62409.59;;;-145.97;100.00
54465;BME280;40374;49.480;20.016;2022-12-08T18:04:53;62409.59;;;-145.97;100.00
54465;BME280;40374;49.480;20.016;2022-12-08T18:07:21;62409.59;;;-145.97;100.00
54465;BME280;40374;49.480;20.016;2022-12-08T18:09:48;62409.59;;;-145.97;100.00
54465;BME280;40374;49.480;20.016;2022-12-08T18:12:17;62409.59;;;-145.97;100.00
54465;BME280;40374;49.480;20.016;2022-12-08T18:14:50;62409.59;;;-145.97;100.00
54465;BME280;40374;49.480;20.016;2022-12-08T18:17:18;62409.59;;;-145.97;100.00
54465;BME280;40374;49.480;20.016;2022-12-08T18:19:46;62409.59;;;-145.97;100.00
54465;BME280;40374;49.480;20.016;2022-12-08T18:22:14;62409.59;;;-145.97;100.00
54465;BME280;40374;49.480;20.016;2022-12-08T18:24:42;62409.59;;;-145.97;100.00
54465;BME280;40374;49.480;20.016;2022-12-08T18:27:10;62409.59;;;-145.97;100.00
54465;BME280;40374;49.480;20.016;2022-12-08T18:29:38;62409.59;;;-145.97;100.00
54465;BME280;40374;49.480;20.016;2022-12-08T18:32:06;62409.59;;;-145.97;100.00
54465;BME280;40374;49.480;20.016;2022-12-08T18:34:34;62409.59;;;-145.97;100.00
54465;BME280;40374;49.480;20.016;2022-12-08T18:37:02;62409.59;;;-145.97;100.00
54465;BME280;40374;49.480;20.016;2022-12-08T18:39:31;62409.59;;;-145.97;100.00
54465;BME280;40374;49.480;20.016;2022-12-08T18:42:00;62409.59;;;-145.97;100.00
54465;BME280;40374;49.480;20.016;2022-12-08T18:44:54;62409.59;;;-145.97;100.00
54465;BME280;40374;49.480;20.016;2022-12-08T18:47:35;62409.59;;;-145.97;100.00
54465;BME280;40374;49.480;20.016;2022-12-08T18:50:05;62409.59;;;-145.97;100.00
54465;BME280;40374;49.480;20.016;2022-12-08T18:52:34;62409.59;;;-145.97;100.00